sensor_id;sensor_type;location;lat;lon;timestamp;temperature;humidity
21722;DHT22;11023;48.274;7.794;2023-06-22T00:01:50;21.80;99.90
21722;DHT22;11023;48.274;7.794;2023-06-22T00:04:22;21.80;99.90
21722;DHT22;11023;48.274;7.794;2023-06-22T00:06:56;21.80;99.90
21722;DHT22;11023;48.274;7.794;2023-06-22T00:09:39;21.70;99.90
21722;DHT22;11023;48.274;7.794;2023-06-22T00:12:08;21.60;99.90
21722;DHT22;11023;48.274;7.794;2023-06-22T00:14:35;21.50;99.90
21722;DHT22;11023;48.274;7.794;2023-06-22T00:17:07;21.40;99.90
21722;DHT22;11023;48.274;7.794;2023-06-22T00:19:38;21.30;99.90
21722;DHT22;11023;48.274;7.794;2023-06-22T00:22:41;21.30;99.90
21722;DHT22;11023;48.274;7.794;2023-06-22T00:25:20;21.30;99.90
21722;DHT22;11023;48.274;7.794;2023-06-22T00:27:46;21.20;99.90
21722;DHT22;11023;48.274;7.794;2023-06-22T00:30:35;21.20;99.90
21722;DHT22;11023;48.274;7.794;2023-06-22T00:33:08;21.10;99.90
21722;DHT22;11023;48.274;7.794;2023-06-22T00:35:44;21.10;99.90
21722;DHT22;11023;48.274;7.794;2023-06-22T00:38:18;21.20;99.90
21722;DHT22;11023;48.274;7.794;2023-06-22T00:40:47;21.20;99.90
21722;DHT22;11023;48.274;7.794;2023-06-22T00:43:15;21.10;99.90
21722;DHT22;11023;48.274;7.794;2023-06-22T00:45:55;21.30;99.90
21722;DHT22;11023;48.274;7.794;2023-06-22T00:48:29;21.20;99.90
21722;DHT22;11023;48.274;7.794;2023-06-22T00:51:03;21.10;99.90
21722;DHT22;11023;48.274;7.794;2023-06-22T00:53:29;21.00;99.90
21722;DHT22;11023;48.274;7.794;2023-06-22T00:56:11;21.00;99.90
21722;DHT22;11023;48.274;7.794;2023-06-22T00:59:08;21.00;99.90
21722;DHT22;11023;48.274;7.794;2023-06-22T01:01:44;21.00;99.90
21722;DHT22;11023;48.274;7.794;2023-06-22T01:04:16;21.00;99.90
21722;DHT22;11023;48.274;7.794;2023-06-22T01:10:43;21.00;99.90
21722;DHT22;11023;48.274;7.794;2023-06-22T01:16:25;20.90;99.90
21722;DHT22;11023;48.274;7.794;2023-06-22T01:19:05;21.00;99.90
21722;DHT22;11023;48.274;7.794;2023-06-22T01:21:39;20.90;99.90
21722;DHT22;11023;48.274;7.794;2023-06-22T01:25:13;20.90;99.90
21722;DHT22;11023;48.274;7.794;2023-06-22T01:30:11;20.80;99.90
21722;DHT22;11023;48.274;7.794;2023-06-22T01:32:39;20.70;99.90
21722;DHT22;11023;48.274;7.794;2023-06-22T01:35:07;20.70;99.90
21722;DHT22;11023;48.274;7.794;2023-06-22T01:37:34;20.70;99.90
21722;DHT22;11023;48.274;7.794;2023-06-22T01:40:02;20.70;99.90
21722;DHT22;11023;48.274;7.794;2023-06-22T01:42:35;20.70;99.90
21722;DHT22;11023;48.274;7.794;2023-06-22T01:45:07;20.70;99.90
21722;DHT22;11023;48.274;7.794;2023-06-22T01:47:37;20.70;99.90
21722;DHT22;11023;48.274;7.794;2023-06-22T01:50:06;20.70;99.90
21722;DHT22;11023;48.274;7.794;2023-06-22T01:52:35;20.70;99.90
21722;DHT22;11023;48.274;7.794;2023-06-22T01:55:08;20.70;99.90
21722;DHT22;11023;48.274;7.794;2023-06-22T01:57:38;20.70;99.90
21722;DHT22;11023;48.274;7.794;2023-06-22T02:00:09;20.70;99.90
21722;DHT22;11023;48.274;7.794;2023-06-22T02:03:08;20.70;99.90
21722;DHT22;11023;48.274;7.794;2023-06-22T02:05:37;20.70;99.90
21722;DHT22;11023;48.274;7.794;2023-06-22T02:08:11;20.70;99.90
21722;DHT22;11023;48.274;7.794;2023-06-22T02:10:53;20.70;99.90
21722;DHT22;11023;48.274;7.794;2023-06-22T02:13:20;20.60;99.90
21722;DHT22;11023;48.274;7.794;2023-06-22T02:15:55;20.60;99.90
21722;DHT22;11023;48.274;7.794;2023-06-22T02:18:30;20.60;99.90
21722;DHT22;11023;48.274;7.794;2023-06-22T02:20:59;20.60;99.90
21722;DHT22;11023;48.274;7.794;2023-06-22T02:23:27;20.60;99.90
21722;DHT22;11023;48.274;7.794;2023-06-22T02:26:06;20.60;99.90
21722;DHT22;11023;48.274;7.794;2023-06-22T02:28:34;20.60;99.90
21722;DHT22;11023;48.274;7.794;2023-06-22T02:31:00;20.50;99.90
21722;DHT22;11023;48.274;7.794;2023-06-22T02:33:28;20.40;99.90
21722;DHT22;11023;48.274;7.794;2023-06-22T02:35:57;20.40;99.90
21722;DHT22;11023;48.274;7.794;2023-06-22T02:38:23;20.40;99.90
21722;DHT22;11023;48.274;7.794;2023-06-22T02:40:58;20.40;99.90
21722;DHT22;11023;48.274;7.794;2023-06-22T02:43:32;20.30;99.90
21722;DHT22;11023;48.274;7.794;2023-06-22T02:45:57;20.30;99.90
21722;DHT22;11023;48.274;7.794;2023-06-22T02:48:36;20.30;99.90
21722;DHT22;11023;48.274;7.794;2023-06-22T02:51:25;20.30;99.90
21722;DHT22;11023;48.274;7.794;2023-06-22T02:53:55;20.30;99.90
21722;DHT22;11023;48.274;7.794;2023-06-22T02:56:23;20.20;99.90
21722;DHT22;11023;48.274;7.794;2023-06-22T02:58:52;20.20;99.90
21722;DHT22;11023;48.274;7.794;2023-06-22T03:01:19;20.20;99.90
21722;DHT22;11023;48.274;7.794;2023-06-22T03:03:49;20.20;99.90
21722;DHT22;11023;48.274;7.794;2023-06-22T03:06:18;20.10;99.90
21722;DHT22;11023;48.274;7.794;2023-06-22T03:08:52;20.10;99.90
21722;DHT22;11023;48.274;7.794;2023-06-22T03:11:21;20.10;99.90
21722;DHT22;11023;48.274;7.794;2023-06-22T03:13:51;20.20;99.90
21722;DHT22;11023;48.274;7.794;2023-06-22T03:16:33;20.10;99.90
21722;DHT22;11023;48.274;7.794;2023-06-22T03:19:00;20.10;99.90
21722;DHT22;11023;48.274;7.794;2023-06-22T03:21:29;20.10;99.90
21722;DHT22;11023;48.274;7.794;2023-06-22T03:23:55;20.10;99.90
21722;DHT22;11023;48.274;7.794;2023-06-22T03:26:21;20.10;99.90
21722;DHT22;11023;48.274;7.794;2023-06-22T03:28:49;20.10;99.90
21722;DHT22;11023;48.274;7.794;2023-06-22T03:31:17;20.00;99.90
21722;DHT22;11023;48.274;7.794;2023-06-22T03:33:48;20.00;99.90
21722;DHT22;11023;48.274;7.794;2023-06-22T03:36:18;20.00;99.90
21722;DHT22;11023;48.274;7.794;2023-06-22T03:38:48;20.00;99.90
21722;DHT22;11023;48.274;7.794;2023-06-22T03:41:18;19.90;99.90
21722;DHT22;11023;48.274;7.794;2023-06-22T03:43:48;19.90;99.90
21722;DHT22;11023;48.274;7.794;2023-06-22T03:46:14;19.90;99.90
21722;DHT22;11023;48.274;7.794;2023-06-22T03:48:40;20.00;99.90
21722;DHT22;11023;48.274;7.794;2023-06-22T03:51:08;20.00;99.90
21722;DHT22;11023;48.274;7.794;2023-06-22T03:53:34;20.00;99.90
21722;DHT22;11023;48.274;7.794;2023-06-22T03:56:02;20.00;99.90
21722;DHT22;11023;48.274;7.794;2023-06-22T03:58:31;20.00;99.90
21722;DHT22;11023;48.274;7.794;2023-06-22T04:00:58;19.90;99.90
21722;DHT22;11023;48.274;7.794;2023-06-22T04:03:25;20.00;99.90
21722;DHT22;11023;48.274;7.794;2023-06-22T04:05:51;19.90;99.90
21722;DHT22;11023;48.274;7.794;2023-06-22T04:08:17;20.00;99.90
21722;DHT22;11023;48.274;7.794;2023-06-22T04:10:46;19.90;99.90
21722;DHT22;11023;48.274;7.794;2023-06-22T04:13:12;19.90;99.90
21722;DHT22;11023;48.274;7.794;2023-06-22T04:15:39;19.90;99.90
21722;DHT22;11023;48.274;7.794;2023-06-22T04:18:07;19.90;99.90
21722;DHT22;11023;48.274;7.794;2023-06-22T04:20:33;19.90;99.90
21722;DHT22;11023;48.274;7.794;2023-06-22T04:23:01;20.00;99.90
21722;DHT22;11023;48.274;7.794;2023-06-22T04:25:27;19.90;99.90
21722;DHT22;11023;48.274;7.794;2023-06-22T04:27:53;19.90;99.90
21722;DHT22;11023;48.274;7.794;2023-06-22T04:30:19;20.00;99.90
21722;DHT22;11023;48.274;7.794;2023-06-22T04:32:55;20.00;99.90
21722;DHT22;11023;48.274;7.794;2023-06-22T04:35:32;20.00;99.90
21722;DHT22;11023;48.274;7.794;2023-06-22T04:37:58;20.00;99.90
21722;DHT22;11023;48.274;7.794;2023-06-22T04:40:27;20.00;99.90
21722;DHT22;11023;48.274;7.794;2023-06-22T04:42:55;20.00;99.90
21722;DHT22;11023;48.274;7.794;2023-06-22T04:45:21;20.10;99.90
21722;DHT22;11023;48.274;7.794;2023-06-22T04:47:58;20.10;99.90
21722;DHT22;11023;48.274;7.794;2023-06-22T04:50:34;20.10;99.90
21722;DHT22;11023;48.274;7.794;2023-06-22T04:53:00;20.20;99.90
21722;DHT22;11023;48.274;7.794;2023-06-22T04:55:33;20.20;99.90
21722;DHT22;11023;48.274;7.794;2023-06-22T04:58:02;20.20;99.90
21722;DHT22;11023;48.274;7.794;2023-06-22T05:00:35;20.20;99.90
21722;DHT22;11023;48.274;7.794;2023-06-22T05:03:22;20.30;99.90
21722;DHT22;11023;48.274;7.794;2023-06-22T05:05:55;20.30;99.90
21722;DHT22;11023;48.274;7.794;2023-06-22T05:08:27;20.30;99.90
21722;DHT22;11023;48.274;7.794;2023-06-22T05:11:03;20.40;99.90
21722;DHT22;11023;48.274;7.794;2023-06-22T05:13:32;20.40;99.90
21722;DHT22;11023;48.274;7.794;2023-06-22T05:30:32;20.60;99.90
21722;DHT22;11023;48.274;7.794;2023-06-22T06:35:06;22.20;99.90
21722;DHT22;11023;48.274;7.794;2023-06-22T06:37:40;22.40;99.90
21722;DHT22;11023;48.274;7.794;2023-06-22T06:40:11;22.50;99.90
21722;DHT22;11023;48.274;7.794;2023-06-22T06:42:42;22.60;99.90
21722;DHT22;11023;48.274;7.794;2023-06-22T06:45:22;22.70;99.90
21722;DHT22;11023;48.274;7.794;2023-06-22T06:47:48;22.80;99.90
21722;DHT22;11023;48.274;7.794;2023-06-22T06:50:14;22.90;99.90
21722;DHT22;11023;48.274;7.794;2023-06-22T06:52:40;23.00;99.90
21722;DHT22;11023;48.274;7.794;2023-06-22T06:55:07;23.20;99.90
21722;DHT22;11023;48.274;7.794;2023-06-22T06:57:36;23.30;99.90
21722;DHT22;11023;48.274;7.794;2023-06-22T07:00:04;23.50;99.90
21722;DHT22;11023;48.274;7.794;2023-06-22T07:02:35;23.60;99.90
21722;DHT22;11023;48.274;7.794;2023-06-22T07:05:01;23.70;99.90
21722;DHT22;11023;48.274;7.794;2023-06-22T07:07:29;23.70;99.90
21722;DHT22;11023;48.274;7.794;2023-06-22T07:09:54;23.70;99.90
21722;DHT22;11023;48.274;7.794;2023-06-22T07:12:20;23.80;99.90
21722;DHT22;11023;48.274;7.794;2023-06-22T07:14:46;23.80;99.90
21722;DHT22;11023;48.274;7.794;2023-06-22T07:17:12;23.80;99.90
21722;DHT22;11023;48.274;7.794;2023-06-22T07:19:37;23.80;99.90
21722;DHT22;11023;48.274;7.794;2023-06-22T07:22:04;23.70;99.90
21722;DHT22;11023;48.274;7.794;2023-06-22T07:24:30;23.60;99.90
21722;DHT22;11023;48.274;7.794;2023-06-22T07:26:55;23.40;99.90
21722;DHT22;11023;48.274;7.794;2023-06-22T07:29:22;23.30;99.90
21722;DHT22;11023;48.274;7.794;2023-06-22T07:31:50;23.30;99.90
21722;DHT22;11023;48.274;7.794;2023-06-22T07:34:17;23.30;99.90
21722;DHT22;11023;48.274;7.794;2023-06-22T07:36:43;23.30;99.90
21722;DHT22;11023;48.274;7.794;2023-06-22T07:39:09;23.30;99.90
21722;DHT22;11023;48.274;7.794;2023-06-22T07:41:35;23.30;99.90
21722;DHT22;11023;48.274;7.794;2023-06-22T07:44:02;23.30;99.90
21722;DHT22;11023;48.274;7.794;2023-06-22T07:46:29;23.30;99.90
21722;DHT22;11023;48.274;7.794;2023-06-22T07:48:56;23.30;99.90
21722;DHT22;11023;48.274;7.794;2023-06-22T07:51:22;23.20;99.90
21722;DHT22;11023;48.274;7.794;2023-06-22T07:53:47;23.20;99.90
21722;DHT22;11023;48.274;7.794;2023-06-22T07:56:14;23.30;99.90
21722;DHT22;11023;48.274;7.794;2023-06-22T07:58:44;23.40;99.90
21722;DHT22;11023;48.274;7.794;2023-06-22T08:01:11;23.40;99.90
21722;DHT22;11023;48.274;7.794;2023-06-22T08:03:37;23.40;99.90
21722;DHT22;11023;48.274;7.794;2023-06-22T08:06:02;23.50;99.90
21722;DHT22;11023;48.274;7.794;2023-06-22T08:08:28;23.50;99.90
21722;DHT22;11023;48.274;7.794;2023-06-22T08:10:54;23.70;99.90
21722;DHT22;11023;48.274;7.794;2023-06-22T08:13:20;23.70;99.90
21722;DHT22;11023;48.274;7.794;2023-06-22T08:15:45;23.80;99.90
21722;DHT22;11023;48.274;7.794;2023-06-22T08:18:11;23.90;99.90
21722;DHT22;11023;48.274;7.794;2023-06-22T08:20:37;24.00;99.90
21722;DHT22;11023;48.274;7.794;2023-06-22T08:23:02;24.10;99.90
21722;DHT22;11023;48.274;7.794;2023-06-22T08:25:32;24.30;99.90
21722;DHT22;11023;48.274;7.794;2023-06-22T08:27:58;24.50;99.90
21722;DHT22;11023;48.274;7.794;2023-06-22T08:30:24;24.60;99.90
21722;DHT22;11023;48.274;7.794;2023-06-22T08:32:49;24.80;99.90
21722;DHT22;11023;48.274;7.794;2023-06-22T08:35:15;25.10;99.90
21722;DHT22;11023;48.274;7.794;2023-06-22T08:37:41;25.30;99.90
21722;DHT22;11023;48.274;7.794;2023-06-22T08:40:08;25.60;99.90
21722;DHT22;11023;48.274;7.794;2023-06-22T08:42:39;25.80;99.90
21722;DHT22;11023;48.274;7.794;2023-06-22T08:45:06;25.90;99.90
21722;DHT22;11023;48.274;7.794;2023-06-22T08:47:32;26.10;99.90
21722;DHT22;11023;48.274;7.794;2023-06-22T08:49:57;26.30;99.90
21722;DHT22;11023;48.274;7.794;2023-06-22T08:52:23;26.50;99.90
21722;DHT22;11023;48.274;7.794;2023-06-22T08:54:49;26.60;99.90
21722;DHT22;11023;48.274;7.794;2023-06-22T08:57:15;26.70;99.90
21722;DHT22;11023;48.274;7.794;2023-06-22T08:59:42;26.80;99.90
21722;DHT22;11023;48.274;7.794;2023-06-22T09:02:08;26.90;99.90
21722;DHT22;11023;48.274;7.794;2023-06-22T09:04:33;26.90;99.90
21722;DHT22;11023;48.274;7.794;2023-06-22T09:07:01;27.00;99.90
21722;DHT22;11023;48.274;7.794;2023-06-22T09:09:27;27.10;99.90
21722;DHT22;11023;48.274;7.794;2023-06-22T09:11:52;27.10;99.90
21722;DHT22;11023;48.274;7.794;2023-06-22T09:14:18;27.20;99.90
21722;DHT22;11023;48.274;7.794;2023-06-22T09:16:44;27.20;99.90
21722;DHT22;11023;48.274;7.794;2023-06-22T09:19:10;27.30;99.90
21722;DHT22;11023;48.274;7.794;2023-06-22T09:21:36;27.30;99.90
21722;DHT22;11023;48.274;7.794;2023-06-22T09:24:02;27.40;99.90
21722;DHT22;11023;48.274;7.794;2023-06-22T09:26:28;27.50;99.90
21722;DHT22;11023;48.274;7.794;2023-06-22T09:28:53;27.60;99.90
21722;DHT22;11023;48.274;7.794;2023-06-22T09:31:19;27.80;99.90
21722;DHT22;11023;48.274;7.794;2023-06-22T09:33:54;27.90;99.90
21722;DHT22;11023;48.274;7.794;2023-06-22T09:36:21;28.00;99.90
21722;DHT22;11023;48.274;7.794;2023-06-22T09:38:47;28.10;99.90
21722;DHT22;11023;48.274;7.794;2023-06-22T09:41:13;28.20;99.90
21722;DHT22;11023;48.274;7.794;2023-06-22T09:43:39;28.30;99.90
21722;DHT22;11023;48.274;7.794;2023-06-22T09:46:07;28.40;99.90
21722;DHT22;11023;48.274;7.794;2023-06-22T09:48:34;28.40;99.90
21722;DHT22;11023;48.274;7.794;2023-06-22T09:51:00;28.40;99.90
21722;DHT22;11023;48.274;7.794;2023-06-22T09:53:26;28.50;99.90
21722;DHT22;11023;48.274;7.794;2023-06-22T09:55:51;28.70;99.90
21722;DHT22;11023;48.274;7.794;2023-06-22T09:58:18;28.80;99.90
21722;DHT22;11023;48.274;7.794;2023-06-22T10:00:44;28.90;99.90
21722;DHT22;11023;48.274;7.794;2023-06-22T10:03:09;28.90;99.90
21722;DHT22;11023;48.274;7.794;2023-06-22T10:05:35;29.00;99.90
21722;DHT22;11023;48.274;7.794;2023-06-22T10:08:01;28.90;99.90
21722;DHT22;11023;48.274;7.794;2023-06-22T10:10:26;29.00;99.90
21722;DHT22;11023;48.274;7.794;2023-06-22T10:12:57;29.30;99.90
21722;DHT22;11023;48.274;7.794;2023-06-22T10:15:23;29.50;99.90
21722;DHT22;11023;48.274;7.794;2023-06-22T10:17:49;29.80;99.90
21722;DHT22;11023;48.274;7.794;2023-06-22T10:20:15;30.00;99.90
21722;DHT22;11023;48.274;7.794;2023-06-22T10:22:42;30.20;99.90
21722;DHT22;11023;48.274;7.794;2023-06-22T10:25:09;30.30;99.90
21722;DHT22;11023;48.274;7.794;2023-06-22T10:27:35;30.40;99.90
21722;DHT22;11023;48.274;7.794;2023-06-22T10:30:01;30.40;99.90
21722;DHT22;11023;48.274;7.794;2023-06-22T10:32:26;30.50;99.90
21722;DHT22;11023;48.274;7.794;2023-06-22T10:34:54;30.40;99.90
21722;DHT22;11023;48.274;7.794;2023-06-22T10:37:20;30.40;99.90
21722;DHT22;11023;48.274;7.794;2023-06-22T10:39:45;30.50;99.90
21722;DHT22;11023;48.274;7.794;2023-06-22T10:42:12;30.40;99.90
21722;DHT22;11023;48.274;7.794;2023-06-22T10:44:38;30.50;99.90
21722;DHT22;11023;48.274;7.794;2023-06-22T10:47:06;30.30;99.90
21722;DHT22;11023;48.274;7.794;2023-06-22T10:49:32;30.30;99.90
21722;DHT22;11023;48.274;7.794;2023-06-22T10:51:57;30.40;99.90
21722;DHT22;11023;48.274;7.794;2023-06-22T10:54:23;30.70;99.90
21722;DHT22;11023;48.274;7.794;2023-06-22T10:56:48;30.70;99.90
21722;DHT22;11023;48.274;7.794;2023-06-22T10:59:15;30.80;99.90
21722;DHT22;11023;48.274;7.794;2023-06-22T11:01:41;31.00;99.90
21722;DHT22;11023;48.274;7.794;2023-06-22T11:04:07;31.10;99.90
21722;DHT22;11023;48.274;7.794;2023-06-22T11:06:33;31.20;99.90
21722;DHT22;11023;48.274;7.794;2023-06-22T11:08:58;31.30;99.90
21722;DHT22;11023;48.274;7.794;2023-06-22T11:11:25;31.40;99.90
21722;DHT22;11023;48.274;7.794;2023-06-22T11:13:52;31.50;99.90
21722;DHT22;11023;48.274;7.794;2023-06-22T11:16:18;31.60;99.90
21722;DHT22;11023;48.274;7.794;2023-06-22T11:18:44;31.60;99.90
21722;DHT22;11023;48.274;7.794;2023-06-22T11:21:09;31.70;99.90
21722;DHT22;11023;48.274;7.794;2023-06-22T11:23:35;31.90;99.90
21722;DHT22;11023;48.274;7.794;2023-06-22T11:26:00;31.90;99.90
21722;DHT22;11023;48.274;7.794;2023-06-22T11:28:27;32.10;99.90
21722;DHT22;11023;48.274;7.794;2023-06-22T11:30:53;32.20;99.90
21722;DHT22;11023;48.274;7.794;2023-06-22T11:33:18;32.30;99.90
21722;DHT22;11023;48.274;7.794;2023-06-22T11:35:44;32.30;99.90
21722;DHT22;11023;48.274;7.794;2023-06-22T11:38:10;32.40;99.90
21722;DHT22;11023;48.274;7.794;2023-06-22T11:40:36;32.50;99.90
21722;DHT22;11023;48.274;7.794;2023-06-22T11:43:01;32.30;99.90
21722;DHT22;11023;48.274;7.794;2023-06-22T11:45:27;32.30;99.90
21722;DHT22;11023;48.274;7.794;2023-06-22T11:47:52;32.10;99.90
21722;DHT22;11023;48.274;7.794;2023-06-22T11:50:18;31.80;99.90
21722;DHT22;11023;48.274;7.794;2023-06-22T11:52:44;31.90;99.90
21722;DHT22;11023;48.274;7.794;2023-06-22T11:55:09;32.10;99.90
21722;DHT22;11023;48.274;7.794;2023-06-22T11:57:36;32.20;99.90
21722;DHT22;11023;48.274;7.794;2023-06-22T12:00:03;32.30;99.90
21722;DHT22;11023;48.274;7.794;2023-06-22T12:02:32;32.50;99.90
21722;DHT22;11023;48.274;7.794;2023-06-22T12:04:57;32.80;99.90
21722;DHT22;11023;48.274;7.794;2023-06-22T12:07:23;33.00;99.90
21722;DHT22;11023;48.274;7.794;2023-06-22T12:09:49;33.00;99.90
21722;DHT22;11023;48.274;7.794;2023-06-22T12:12:15;32.90;99.90
21722;DHT22;11023;48.274;7.794;2023-06-22T12:14:40;33.00;99.90
21722;DHT22;11023;48.274;7.794;2023-06-22T12:17:06;33.00;99.90
21722;DHT22;11023;48.274;7.794;2023-06-22T12:19:32;33.10;99.90
21722;DHT22;11023;48.274;7.794;2023-06-22T12:21:57;33.20;99.90
21722;DHT22;11023;48.274;7.794;2023-06-22T12:24:23;33.30;99.90
21722;DHT22;11023;48.274;7.794;2023-06-22T12:26:49;33.20;99.90
21722;DHT22;11023;48.274;7.794;2023-06-22T12:29:15;33.30;99.90
21722;DHT22;11023;48.274;7.794;2023-06-22T12:31:44;33.40;99.90
21722;DHT22;11023;48.274;7.794;2023-06-22T12:34:10;33.50;99.90
21722;DHT22;11023;48.274;7.794;2023-06-22T12:36:36;33.70;99.90
21722;DHT22;11023;48.274;7.794;2023-06-22T12:39:01;33.80;99.90
21722;DHT22;11023;48.274;7.794;2023-06-22T12:41:27;33.90;99.90
21722;DHT22;11023;48.274;7.794;2023-06-22T12:43:52;34.00;99.90
21722;DHT22;11023;48.274;7.794;2023-06-22T12:46:18;33.90;99.90
21722;DHT22;11023;48.274;7.794;2023-06-22T12:48:44;33.80;99.90
21722;DHT22;11023;48.274;7.794;2023-06-22T12:51:09;33.60;99.90
21722;DHT22;11023;48.274;7.794;2023-06-22T12:53:35;33.60;99.90
21722;DHT22;11023;48.274;7.794;2023-06-22T12:56:01;33.40;99.90
21722;DHT22;11023;48.274;7.794;2023-06-22T12:58:27;33.40;99.90
21722;DHT22;11023;48.274;7.794;2023-06-22T13:00:52;33.30;99.90
21722;DHT22;11023;48.274;7.794;2023-06-22T13:03:18;33.30;99.90
21722;DHT22;11023;48.274;7.794;2023-06-22T13:05:44;33.30;99.90
21722;DHT22;11023;48.274;7.794;2023-06-22T13:08:10;33.20;99.90
21722;DHT22;11023;48.274;7.794;2023-06-22T13:10:36;33.10;99.90
21722;DHT22;11023;48.274;7.794;2023-06-22T13:13:02;33.20;99.90
21722;DHT22;11023;48.274;7.794;2023-06-22T13:15:28;33.10;99.90
21722;DHT22;11023;48.274;7.794;2023-06-22T13:17:55;33.00;99.90
21722;DHT22;11023;48.274;7.794;2023-06-22T13:20:21;33.00;99.90
21722;DHT22;11023;48.274;7.794;2023-06-22T13:22:46;32.70;99.90
21722;DHT22;11023;48.274;7.794;2023-06-22T13:25:12;32.50;99.90
21722;DHT22;11023;48.274;7.794;2023-06-22T13:27:39;32.50;99.90
21722;DHT22;11023;48.274;7.794;2023-06-22T13:30:05;32.40;99.90
21722;DHT22;11023;48.274;7.794;2023-06-22T13:32:31;32.40;99.90
21722;DHT22;11023;48.274;7.794;2023-06-22T13:34:57;32.50;99.90
21722;DHT22;11023;48.274;7.794;2023-06-22T13:37:23;32.70;99.90
21722;DHT22;11023;48.274;7.794;2023-06-22T13:39:49;33.00;99.90
21722;DHT22;11023;48.274;7.794;2023-06-22T13:42:14;33.40;99.90
21722;DHT22;11023;48.274;7.794;2023-06-22T13:44:40;33.60;99.90
21722;DHT22;11023;48.274;7.794;2023-06-22T13:47:06;33.70;99.90
21722;DHT22;11023;48.274;7.794;2023-06-22T13:49:32;33.80;99.90
21722;DHT22;11023;48.274;7.794;2023-06-22T13:51:58;33.70;99.90
21722;DHT22;11023;48.274;7.794;2023-06-22T13:54:24;33.70;99.90
21722;DHT22;11023;48.274;7.794;2023-06-22T13:56:50;33.80;99.90
21722;DHT22;11023;48.274;7.794;2023-06-22T13:59:15;34.00;99.90
21722;DHT22;11023;48.274;7.794;2023-06-22T14:01:41;34.20;99.90
21722;DHT22;11023;48.274;7.794;2023-06-22T14:04:08;34.40;99.90
21722;DHT22;11023;48.274;7.794;2023-06-22T14:06:34;34.60;99.90
21722;DHT22;11023;48.274;7.794;2023-06-22T14:09:00;34.50;99.90
21722;DHT22;11023;48.274;7.794;2023-06-22T14:11:26;34.40;99.90
21722;DHT22;11023;48.274;7.794;2023-06-22T14:13:51;34.30;99.90
21722;DHT22;11023;48.274;7.794;2023-06-22T14:16:17;34.10;99.90
21722;DHT22;11023;48.274;7.794;2023-06-22T14:18:44;33.80;99.90
21722;DHT22;11023;48.274;7.794;2023-06-22T14:21:09;33.80;99.90
21722;DHT22;11023;48.274;7.794;2023-06-22T14:23:35;33.80;99.90
21722;DHT22;11023;48.274;7.794;2023-06-22T14:26:01;33.80;99.90
21722;DHT22;11023;48.274;7.794;2023-06-22T14:28:26;33.90;99.90
21722;DHT22;11023;48.274;7.794;2023-06-22T14:30:52;33.90;99.90
21722;DHT22;11023;48.274;7.794;2023-06-22T14:33:17;33.80;99.90
21722;DHT22;11023;48.274;7.794;2023-06-22T14:35:43;33.60;99.90
21722;DHT22;11023;48.274;7.794;2023-06-22T14:38:09;33.40;99.90
21722;DHT22;11023;48.274;7.794;2023-06-22T14:40:34;33.20;99.90
21722;DHT22;11023;48.274;7.794;2023-06-22T14:43:00;33.10;99.90
21722;DHT22;11023;48.274;7.794;2023-06-22T14:45:25;33.10;99.90
21722;DHT22;11023;48.274;7.794;2023-06-22T14:47:52;33.40;99.90
21722;DHT22;11023;48.274;7.794;2023-06-22T14:50:17;33.60;99.90
21722;DHT22;11023;48.274;7.794;2023-06-22T14:52:44;33.80;99.90
21722;DHT22;11023;48.274;7.794;2023-06-22T14:55:10;34.20;99.90
21722;DHT22;11023;48.274;7.794;2023-06-22T14:57:39;34.50;99.90
21722;DHT22;11023;48.274;7.794;2023-06-22T15:00:05;34.70;99.90
21722;DHT22;11023;48.274;7.794;2023-06-22T15:02:32;35.00;99.90
21722;DHT22;11023;48.274;7.794;2023-06-22T15:04:57;35.10;99.90
21722;DHT22;11023;48.274;7.794;2023-06-22T15:07:23;35.10;99.90
21722;DHT22;11023;48.274;7.794;2023-06-22T15:09:49;35.30;99.90
21722;DHT22;11023;48.274;7.794;2023-06-22T15:12:14;35.50;99.90
21722;DHT22;11023;48.274;7.794;2023-06-22T15:14:42;35.60;99.90
21722;DHT22;11023;48.274;7.794;2023-06-22T15:17:08;35.80;99.90
21722;DHT22;11023;48.274;7.794;2023-06-22T15:20:04;35.90;99.90
21722;DHT22;11023;48.274;7.794;2023-06-22T15:22:30;35.90;99.90
21722;DHT22;11023;48.274;7.794;2023-06-22T15:24:56;36.00;99.90
21722;DHT22;11023;48.274;7.794;2023-06-22T15:27:24;36.20;99.90
21722;DHT22;11023;48.274;7.794;2023-06-22T15:29:49;36.40;99.90
21722;DHT22;11023;48.274;7.794;2023-06-22T15:32:15;36.50;99.90
21722;DHT22;11023;48.274;7.794;2023-06-22T15:34:41;36.60;99.90
21722;DHT22;11023;48.274;7.794;2023-06-22T15:37:06;36.70;99.90
21722;DHT22;11023;48.274;7.794;2023-06-22T15:39:32;36.60;99.90
21722;DHT22;11023;48.274;7.794;2023-06-22T15:41:58;36.60;99.90
21722;DHT22;11023;48.274;7.794;2023-06-22T15:44:24;36.60;99.90
21722;DHT22;11023;48.274;7.794;2023-06-22T15:46:49;36.60;99.90
21722;DHT22;11023;48.274;7.794;2023-06-22T15:49:16;36.60;99.90
21722;DHT22;11023;48.274;7.794;2023-06-22T15:51:43;36.50;99.90
21722;DHT22;11023;48.274;7.794;2023-06-22T15:54:09;36.50;99.90
21722;DHT22;11023;48.274;7.794;2023-06-22T15:56:35;36.30;99.90
21722;DHT22;11023;48.274;7.794;2023-06-22T15:59:00;35.80;99.90
21722;DHT22;11023;48.274;7.794;2023-06-22T16:01:26;35.40;99.90
21722;DHT22;11023;48.274;7.794;2023-06-22T16:03:52;35.00;99.90
21722;DHT22;11023;48.274;7.794;2023-06-22T16:06:18;34.70;99.90
21722;DHT22;11023;48.274;7.794;2023-06-22T16:08:44;34.40;99.90
21722;DHT22;11023;48.274;7.794;2023-06-22T16:11:10;34.20;99.90
21722;DHT22;11023;48.274;7.794;2023-06-22T16:13:36;34.00;99.90
21722;DHT22;11023;48.274;7.794;2023-06-22T16:16:02;33.70;99.90
21722;DHT22;11023;48.274;7.794;2023-06-22T16:18:27;33.60;99.90
21722;DHT22;11023;48.274;7.794;2023-06-22T16:20:53;33.80;99.90
21722;DHT22;11023;48.274;7.794;2023-06-22T16:23:19;33.90;99.90
21722;DHT22;11023;48.274;7.794;2023-06-22T16:25:44;33.90;99.90
21722;DHT22;11023;48.274;7.794;2023-06-22T16:28:10;33.80;99.90
21722;DHT22;11023;48.274;7.794;2023-06-22T16:30:36;33.50;99.90
21722;DHT22;11023;48.274;7.794;2023-06-22T16:33:01;33.30;99.90
21722;DHT22;11023;48.274;7.794;2023-06-22T16:35:30;33.10;99.90
21722;DHT22;11023;48.274;7.794;2023-06-22T16:38:02;32.80;99.90
21722;DHT22;11023;48.274;7.794;2023-06-22T16:40:27;32.60;99.90
21722;DHT22;11023;48.274;7.794;2023-06-22T16:42:53;32.30;99.90
21722;DHT22;11023;48.274;7.794;2023-06-22T16:45:20;32.20;99.90
21722;DHT22;11023;48.274;7.794;2023-06-22T16:47:47;32.00;99.90
21722;DHT22;11023;48.274;7.794;2023-06-22T16:50:13;31.80;99.90
21722;DHT22;11023;48.274;7.794;2023-06-22T16:52:38;31.70;99.90
21722;DHT22;11023;48.274;7.794;2023-06-22T16:55:09;31.40;99.90
21722;DHT22;11023;48.274;7.794;2023-06-22T16:57:35;31.30;99.90
21722;DHT22;11023;48.274;7.794;2023-06-22T17:00:01;31.20;99.90
21722;DHT22;11023;48.274;7.794;2023-06-22T17:02:28;31.20;99.90